sensor_id;sensor_type;location;lat;lon;timestamp;temperature;humidity
66835;HTU21D;53743;51.100;5.874;2023-12-22T00:00:01;7.65;92.91
66835;HTU21D;53743;51.100;5.874;2023-12-22T00:01:05;7.64;92.98
66835;HTU21D;53743;51.100;5.874;2023-12-22T00:02:07;7.60;93.14
66835;HTU21D;53743;51.100;5.874;2023-12-22T00:03:08;7.62;93.38
66835;HTU21D;53743;51.100;5.874;2023-12-22T00:04:10;7.62;93.55
66835;HTU21D;53743;51.100;5.874;2023-12-22T00:05:11;7.63;93.66
66835;HTU21D;53743;51.100;5.874;2023-12-22T00:06:12;7.62;93.78
66835;HTU21D;53743;51.100;5.874;2023-12-22T00:07:16;7.61;93.51
66835;HTU21D;53743;51.100;5.874;2023-12-22T00:08:17;7.59;93.59
66835;HTU21D;53743;51.100;5.874;2023-12-22T00:09:19;7.55;93.68
66835;HTU21D;53743;51.100;5.874;2023-12-22T00:10:20;7.60;93.62
66835;HTU21D;53743;51.100;5.874;2023-12-22T00:11:22;7.64;93.01
66835;HTU21D;53743;51.100;5.874;2023-12-22T00:12:23;7.58;93.16
66835;HTU21D;53743;51.100;5.874;2023-12-22T00:13:25;7.54;93.58
66835;HTU21D;53743;51.100;5.874;2023-12-22T00:14:26;7.55;93.64
66835;HTU21D;53743;51.100;5.874;2023-12-22T00:15:28;7.61;93.66
66835;HTU21D;53743;51.100;5.874;2023-12-22T00:16:29;7.58;93.48
66835;HTU21D;53743;51.100;5.874;2023-12-22T00:17:31;7.61;93.62
66835;HTU21D;53743;51.100;5.874;2023-12-22T00:18:32;7.58;93.24
66835;HTU21D;53743;51.100;5.874;2023-12-22T00:19:34;7.53;93.71
66835;HTU21D;53743;51.100;5.874;2023-12-22T00:20:36;7.46;94.20
66835;HTU21D;53743;51.100;5.874;2023-12-22T00:21:38;7.50;94.48
66835;HTU21D;53743;51.100;5.874;2023-12-22T00:22:40;7.49;94.43
66835;HTU21D;53743;51.100;5.874;2023-12-22T00:23:42;7.50;94.85
66835;HTU21D;53743;51.100;5.874;2023-12-22T00:24:43;7.58;94.46
66835;HTU21D;53743;51.100;5.874;2023-12-22T00:25:45;7.63;94.40
66835;HTU21D;53743;51.100;5.874;2023-12-22T00:26:46;7.70;94.46
66835;HTU21D;53743;51.100;5.874;2023-12-22T00:27:48;7.68;94.93
66835;HTU21D;53743;51.100;5.874;2023-12-22T00:28:49;7.69;95.27
66835;HTU21D;53743;51.100;5.874;2023-12-22T00:29:51;7.74;95.74
66835;HTU21D;53743;51.100;5.874;2023-12-22T00:30:52;7.84;95.46
66835;HTU21D;53743;51.100;5.874;2023-12-22T00:31:54;7.98;95.20
66835;HTU21D;53743;51.100;5.874;2023-12-22T00:32:55;8.02;95.29
66835;HTU21D;53743;51.100;5.874;2023-12-22T00:33:57;8.09;94.36
66835;HTU21D;53743;51.100;5.874;2023-12-22T00:34:58;8.13;94.59
66835;HTU21D;53743;51.100;5.874;2023-12-22T00:35:59;8.18;94.61
66835;HTU21D;53743;51.100;5.874;2023-12-22T00:37:01;8.21;94.73
66835;HTU21D;53743;51.100;5.874;2023-12-22T00:38:06;8.27;94.26
66835;HTU21D;53743;51.100;5.874;2023-12-22T00:39:08;8.33;93.04
66835;HTU21D;53743;51.100;5.874;2023-12-22T00:40:10;8.35;92.92
66835;HTU21D;53743;51.100;5.874;2023-12-22T00:41:12;8.38;93.53
66835;HTU21D;53743;51.100;5.874;2023-12-22T00:42:14;8.47;93.66
66835;HTU21D;53743;51.100;5.874;2023-12-22T00:43:16;8.51;92.85
66835;HTU21D;53743;51.100;5.874;2023-12-22T00:44:17;8.52;93.16
66835;HTU21D;53743;51.100;5.874;2023-12-22T00:45:19;8.62;92.05
66835;HTU21D;53743;51.100;5.874;2023-12-22T00:46:20;8.53;92.37
66835;HTU21D;53743;51.100;5.874;2023-12-22T00:47:22;8.52;92.90
66835;HTU21D;53743;51.100;5.874;2023-12-22T00:48:23;8.48;93.31
66835;HTU21D;53743;51.100;5.874;2023-12-22T00:49:25;8.47;93.29
66835;HTU21D;53743;51.100;5.874;2023-12-22T00:50:26;8.47;93.14
66835;HTU21D;53743;51.100;5.874;2023-12-22T00:51:27;8.47;93.05
66835;HTU21D;53743;51.100;5.874;2023-12-22T00:52:28;8.46;93.53
66835;HTU21D;53743;51.100;5.874;2023-12-22T00:53:32;8.52;92.47
66835;HTU21D;53743;51.100;5.874;2023-12-22T00:54:33;8.59;92.63
66835;HTU21D;53743;51.100;5.874;2023-12-22T00:55:35;8.67;90.87
66835;HTU21D;53743;51.100;5.874;2023-12-22T00:56:36;8.74;90.90
66835;HTU21D;53743;51.100;5.874;2023-12-22T00:57:38;8.76;90.84
66835;HTU21D;53743;51.100;5.874;2023-12-22T00:58:39;8.74;90.86
66835;HTU21D;53743;51.100;5.874;2023-12-22T00:59:41;8.89;88.76
66835;HTU21D;53743;51.100;5.874;2023-12-22T01:00:45;8.81;89.35
66835;HTU21D;53743;51.100;5.874;2023-12-22T01:01:48;8.81;89.41
66835;HTU21D;53743;51.100;5.874;2023-12-22T01:02:49;8.81;89.94
66835;HTU21D;53743;51.100;5.874;2023-12-22T01:03:51;8.77;90.06
66835;HTU21D;53743;51.100;5.874;2023-12-22T01:04:52;8.81;89.62
66835;HTU21D;53743;51.100;5.874;2023-12-22T01:05:54;8.81;89.47
66835;HTU21D;53743;51.100;5.874;2023-12-22T01:06:54;8.88;89.19
66835;HTU21D;53743;51.100;5.874;2023-12-22T01:07:57;8.82;89.74
66835;HTU21D;53743;51.100;5.874;2023-12-22T01:08:59;8.78;89.78
66835;HTU21D;53743;51.100;5.874;2023-12-22T01:10:00;8.76;89.60
66835;HTU21D;53743;51.100;5.874;2023-12-22T01:11:04;8.74;90.54
66835;HTU21D;53743;51.100;5.874;2023-12-22T01:12:05;8.79;90.55
66835;HTU21D;53743;51.100;5.874;2023-12-22T01:13:08;8.79;90.15
66835;HTU21D;53743;51.100;5.874;2023-12-22T01:14:09;8.87;89.96
66835;HTU21D;53743;51.100;5.874;2023-12-22T01:15:13;8.85;89.89
66835;HTU21D;53743;51.100;5.874;2023-12-22T01:16:14;8.81;90.15
66835;HTU21D;53743;51.100;5.874;2023-12-22T01:17:18;8.80;90.74
66835;HTU21D;53743;51.100;5.874;2023-12-22T01:18:19;8.80;90.68
66835;HTU21D;53743;51.100;5.874;2023-12-22T01:19:21;8.85;90.04
66835;HTU21D;53743;51.100;5.874;2023-12-22T01:20:22;8.91;89.99
66835;HTU21D;53743;51.100;5.874;2023-12-22T01:21:24;8.92;89.43
66835;HTU21D;53743;51.100;5.874;2023-12-22T01:22:25;8.90;88.40
66835;HTU21D;53743;51.100;5.874;2023-12-22T01:23:27;8.91;88.63
66835;HTU21D;53743;51.100;5.874;2023-12-22T01:24:29;8.95;89.18
66835;HTU21D;53743;51.100;5.874;2023-12-22T01:25:31;8.97;89.58
66835;HTU21D;53743;51.100;5.874;2023-12-22T01:26:32;8.98;88.57
66835;HTU21D;53743;51.100;5.874;2023-12-22T01:27:34;8.96;88.73
66835;HTU21D;53743;51.100;5.874;2023-12-22T01:28:35;8.96;87.64
66835;HTU21D;53743;51.100;5.874;2023-12-22T01:29:37;8.94;87.61
66835;HTU21D;53743;51.100;5.874;2023-12-22T01:30:39;8.95;87.44
66835;HTU21D;53743;51.100;5.874;2023-12-22T01:31:41;8.94;83.43
66835;HTU21D;53743;51.100;5.874;2023-12-22T01:32:42;8.90;83.87
66835;HTU21D;53743;51.100;5.874;2023-12-22T01:33:44;8.88;83.91
66835;HTU21D;53743;51.100;5.874;2023-12-22T01:34:45;8.86;83.75
66835;HTU21D;53743;51.100;5.874;2023-12-22T01:35:47;8.81;84.39
66835;HTU21D;53743;51.100;5.874;2023-12-22T01:36:48;8.76;84.29
66835;HTU21D;53743;51.100;5.874;2023-12-22T01:37:50;8.78;84.61
66835;HTU21D;53743;51.100;5.874;2023-12-22T01:38:52;8.76;85.04
66835;HTU21D;53743;51.100;5.874;2023-12-22T01:39:55;8.77;85.00
66835;HTU21D;53743;51.100;5.874;2023-12-22T01:40:56;8.78;83.72
66835;HTU21D;53743;51.100;5.874;2023-12-22T01:41:58;8.73;85.05
66835;HTU21D;53743;51.100;5.874;2023-12-22T01:43:01;8.78;84.80
66835;HTU21D;53743;51.100;5.874;2023-12-22T01:44:03;8.72;85.51
66835;HTU21D;53743;51.100;5.874;2023-12-22T01:45:05;8.64;85.29
66835;HTU21D;53743;51.100;5.874;2023-12-22T01:46:09;8.60;85.83
66835;HTU21D;53743;51.100;5.874;2023-12-22T01:47:13;8.63;86.48
66835;HTU21D;53743;51.100;5.874;2023-12-22T01:48:16;8.63;86.26
66835;HTU21D;53743;51.100;5.874;2023-12-22T01:49:17;8.58;86.56
66835;HTU21D;53743;51.100;5.874;2023-12-22T01:50:21;8.51;87.36
66835;HTU21D;53743;51.100;5.874;2023-12-22T01:51:23;8.55;87.10
66835;HTU21D;53743;51.100;5.874;2023-12-22T01:52:26;8.48;88.08
66835;HTU21D;53743;51.100;5.874;2023-12-22T01:53:28;8.48;87.94
66835;HTU21D;53743;51.100;5.874;2023-12-22T01:54:31;8.55;87.95
66835;HTU21D;53743;51.100;5.874;2023-12-22T01:55:35;8.70;87.48
66835;HTU21D;53743;51.100;5.874;2023-12-22T01:56:36;8.64;87.45
66835;HTU21D;53743;51.100;5.874;2023-12-22T01:57:39;8.61;87.41
66835;HTU21D;53743;51.100;5.874;2023-12-22T01:58:41;8.65;87.07
66835;HTU21D;53743;51.100;5.874;2023-12-22T01:59:53;8.60;87.22
66835;HTU21D;53743;51.100;5.874;2023-12-22T02:00:54;8.60;88.38
66835;HTU21D;53743;51.100;5.874;2023-12-22T02:01:58;8.64;86.94
66835;HTU21D;53743;51.100;5.874;2023-12-22T02:02:59;8.61;87.83
66835;HTU21D;53743;51.100;5.874;2023-12-22T02:04:02;8.55;87.86
66835;HTU21D;53743;51.100;5.874;2023-12-22T02:05:06;8.49;88.45
66835;HTU21D;53743;51.100;5.874;2023-12-22T02:06:10;8.46;88.57
66835;HTU21D;53743;51.100;5.874;2023-12-22T02:07:12;8.49;88.07
66835;HTU21D;53743;51.100;5.874;2023-12-22T02:08:17;8.43;88.64
66835;HTU21D;53743;51.100;5.874;2023-12-22T02:09:19;8.41;89.38
66835;HTU21D;53743;51.100;5.874;2023-12-22T02:10:21;8.36;88.95
66835;HTU21D;53743;51.100;5.874;2023-12-22T02:11:24;8.44;88.67
66835;HTU21D;53743;51.100;5.874;2023-12-22T02:12:26;8.39;88.89
66835;HTU21D;53743;51.100;5.874;2023-12-22T02:13:28;8.43;88.70
66835;HTU21D;53743;51.100;5.874;2023-12-22T02:14:30;8.44;89.18
66835;HTU21D;53743;51.100;5.874;2023-12-22T02:15:33;8.42;89.19
66835;HTU21D;53743;51.100;5.874;2023-12-22T02:16:41;8.37;89.43
66835;HTU21D;53743;51.100;5.874;2023-12-22T02:17:51;8.33;89.95
66835;HTU21D;53743;51.100;5.874;2023-12-22T02:19:09;8.34;90.33
66835;HTU21D;53743;51.100;5.874;2023-12-22T02:20:23;8.38;90.72
66835;HTU21D;53743;51.100;5.874;2023-12-22T02:21:25;8.45;90.70
66835;HTU21D;53743;51.100;5.874;2023-12-22T02:22:29;8.45;91.12
66835;HTU21D;53743;51.100;5.874;2023-12-22T02:23:31;8.63;90.37
66835;HTU21D;53743;51.100;5.874;2023-12-22T02:24:32;8.64;90.76
66835;HTU21D;53743;51.100;5.874;2023-12-22T02:25:34;8.67;90.16
66835;HTU21D;53743;51.100;5.874;2023-12-22T02:26:43;8.63;90.37
66835;HTU21D;53743;51.100;5.874;2023-12-22T02:27:49;8.63;91.18
66835;HTU21D;53743;51.100;5.874;2023-12-22T02:28:57;8.63;90.95
66835;HTU21D;53743;51.100;5.874;2023-12-22T02:30:05;8.57;91.15
66835;HTU21D;53743;51.100;5.874;2023-12-22T02:31:17;8.52;91.30
66835;HTU21D;53743;51.100;5.874;2023-12-22T02:32:24;8.51;91.57
66835;HTU21D;53743;51.100;5.874;2023-12-22T02:33:32;8.50;91.45
66835;HTU21D;53743;51.100;5.874;2023-12-22T02:34:36;8.43;91.32
66835;HTU21D;53743;51.100;5.874;2023-12-22T02:35:44;8.46;91.10
66835;HTU21D;53743;51.100;5.874;2023-12-22T02:36:53;8.42;91.53
66835;HTU21D;53743;51.100;5.874;2023-12-22T02:37:59;8.44;91.82
66835;HTU21D;53743;51.100;5.874;2023-12-22T02:39:03;8.46;91.06
66835;HTU21D;53743;51.100;5.874;2023-12-22T02:40:09;8.50;90.60
66835;HTU21D;53743;51.100;5.874;2023-12-22T02:41:12;8.55;90.82
66835;HTU21D;53743;51.100;5.874;2023-12-22T02:42:15;8.57;90.46
66835;HTU21D;53743;51.100;5.874;2023-12-22T02:43:17;8.57;90.12
66835;HTU21D;53743;51.100;5.874;2023-12-22T02:44:19;8.57;89.92
66835;HTU21D;53743;51.100;5.874;2023-12-22T02:45:21;8.59;90.24
66835;HTU21D;53743;51.100;5.874;2023-12-22T02:46:23;8.63;89.74
66835;HTU21D;53743;51.100;5.874;2023-12-22T02:47:24;8.63;89.23
66835;HTU21D;53743;51.100;5.874;2023-12-22T02:48:28;8.67;89.55
66835;HTU21D;53743;51.100;5.874;2023-12-22T02:49:29;8.71;87.50
66835;HTU21D;53743;51.100;5.874;2023-12-22T02:50:31;8.74;87.55
66835;HTU21D;53743;51.100;5.874;2023-12-22T02:51:32;8.81;87.92
66835;HTU21D;53743;51.100;5.874;2023-12-22T02:52:34;8.80;88.02
66835;HTU21D;53743;51.100;5.874;2023-12-22T02:53:37;8.80;86.22
66835;HTU21D;53743;51.100;5.874;2023-12-22T02:54:39;8.80;86.36
66835;HTU21D;53743;51.100;5.874;2023-12-22T02:55:40;8.82;86.31
66835;HTU21D;53743;51.100;5.874;2023-12-22T02:56:45;8.96;86.06
66835;HTU21D;53743;51.100;5.874;2023-12-22T02:57:46;8.96;85.54
66835;HTU21D;53743;51.100;5.874;2023-12-22T02:58:48;8.96;85.32
66835;HTU21D;53743;51.100;5.874;2023-12-22T02:59:49;8.98;85.02
66835;HTU21D;53743;51.100;5.874;2023-12-22T03:00:50;8.94;85.61
66835;HTU21D;53743;51.100;5.874;2023-12-22T03:01:52;8.93;86.22
66835;HTU21D;53743;51.100;5.874;2023-12-22T03:02:53;8.89;85.08
66835;HTU21D;53743;51.100;5.874;2023-12-22T03:03:55;8.87;86.28
66835;HTU21D;53743;51.100;5.874;2023-12-22T03:04:56;8.82;86.05
66835;HTU21D;53743;51.100;5.874;2023-12-22T03:05:57;8.70;85.13
66835;HTU21D;53743;51.100;5.874;2023-12-22T03:06:59;8.70;86.11
66835;HTU21D;53743;51.100;5.874;2023-12-22T03:08:00;8.68;86.01
66835;HTU21D;53743;51.100;5.874;2023-12-22T03:09:04;8.61;85.64
66835;HTU21D;53743;51.100;5.874;2023-12-22T03:10:06;8.56;86.51
66835;HTU21D;53743;51.100;5.874;2023-12-22T03:11:07;8.49;86.92
66835;HTU21D;53743;51.100;5.874;2023-12-22T03:12:09;8.47;87.99
66835;HTU21D;53743;51.100;5.874;2023-12-22T03:13:11;8.43;88.19
66835;HTU21D;53743;51.100;5.874;2023-12-22T03:14:13;8.44;88.25
66835;HTU21D;53743;51.100;5.874;2023-12-22T03:15:14;8.37;87.58
66835;HTU21D;53743;51.100;5.874;2023-12-22T03:16:16;8.32;88.31
66835;HTU21D;53743;51.100;5.874;2023-12-22T03:17:17;8.27;88.27
66835;HTU21D;53743;51.100;5.874;2023-12-22T03:18:18;8.24;88.55
66835;HTU21D;53743;51.100;5.874;2023-12-22T03:19:20;8.24;89.13
66835;HTU21D;53743;51.100;5.874;2023-12-22T03:20:23;8.26;88.86
66835;HTU21D;53743;51.100;5.874;2023-12-22T03:21:25;8.29;89.07
66835;HTU21D;53743;51.100;5.874;2023-12-22T03:22:26;8.34;88.51
66835;HTU21D;53743;51.100;5.874;2023-12-22T03:23:28;8.28;89.34
66835;HTU21D;53743;51.100;5.874;2023-12-22T03:24:30;8.34;88.96
66835;HTU21D;53743;51.100;5.874;2023-12-22T03:25:32;8.23;89.50
66835;HTU21D;53743;51.100;5.874;2023-12-22T03:26:33;8.27;89.25
66835;HTU21D;53743;51.100;5.874;2023-12-22T03:27:35;8.20;89.77
66835;HTU21D;53743;51.100;5.874;2023-12-22T03:28:36;8.16;90.09
66835;HTU21D;53743;51.100;5.874;2023-12-22T03:29:38;8.21;90.13
66835;HTU21D;53743;51.100;5.874;2023-12-22T03:30:40;8.21;89.49
66835;HTU21D;53743;51.100;5.874;2023-12-22T03:31:41;8.18;90.21
66835;HTU21D;53743;51.100;5.874;2023-12-22T03:32:42;8.18;90.00
66835;HTU21D;53743;51.100;5.874;2023-12-22T03:33:44;8.18;90.15
66835;HTU21D;53743;51.100;5.874;2023-12-22T03:34:45;8.17;90.37
66835;HTU21D;53743;51.100;5.874;2023-12-22T03:35:47;8.16;90.65
66835;HTU21D;53743;51.100;5.874;2023-12-22T03:36:48;8.14;90.61
66835;HTU21D;53743;51.100;5.874;2023-12-22T03:37:50;8.16;91.21
66835;HTU21D;53743;51.100;5.874;2023-12-22T03:38:52;8.19;90.96
66835;HTU21D;53743;51.100;5.874;2023-12-22T03:39:55;8.20;90.70
66835;HTU21D;53743;51.100;5.874;2023-12-22T03:40:56;8.22;90.99
66835;HTU21D;53743;51.100;5.874;2023-12-22T03:41:58;8.23;91.04
66835;HTU21D;53743;51.100;5.874;2023-12-22T03:42:59;8.26;91.50
66835;HTU21D;53743;51.100;5.874;2023-12-22T03:44:01;8.27;91.07
66835;HTU21D;53743;51.100;5.874;2023-12-22T03:45:03;8.30;91.15
66835;HTU21D;53743;51.100;5.874;2023-12-22T03:46:07;8.28;91.65
66835;HTU21D;53743;51.100;5.874;2023-12-22T03:47:08;8.30;91.26
66835;HTU21D;53743;51.100;5.874;2023-12-22T03:48:10;8.33;91.29
66835;HTU21D;53743;51.100;5.874;2023-12-22T03:49:11;8.43;90.66
66835;HTU21D;53743;51.100;5.874;2023-12-22T03:50:12;8.42;91.10
66835;HTU21D;53743;51.100;5.874;2023-12-22T03:51:14;8.51;91.23
66835;HTU21D;53743;51.100;5.874;2023-12-22T03:52:15;8.50;90.39
66835;HTU21D;53743;51.100;5.874;2023-12-22T03:53:17;8.56;90.86
66835;HTU21D;53743;51.100;5.874;2023-12-22T03:54:18;8.58;89.60
66835;HTU21D;53743;51.100;5.874;2023-12-22T03:55:21;8.56;89.80
66835;HTU21D;53743;51.100;5.874;2023-12-22T03:56:22;8.57;90.36
66835;HTU21D;53743;51.100;5.874;2023-12-22T03:57:24;8.53;90.29
66835;HTU21D;53743;51.100;5.874;2023-12-22T03:58:25;8.53;90.76
66835;HTU21D;53743;51.100;5.874;2023-12-22T03:59:28;8.56;90.85
66835;HTU21D;53743;51.100;5.874;2023-12-22T04:00:28;8.58;90.97
66835;HTU21D;53743;51.100;5.874;2023-12-22T04:01:30;8.60;90.34
66835;HTU21D;53743;51.100;5.874;2023-12-22T04:02:31;8.60;90.22
66835;HTU21D;53743;51.100;5.874;2023-12-22T04:03:33;8.62;90.20
66835;HTU21D;53743;51.100;5.874;2023-12-22T04:04:37;8.59;89.65
66835;HTU21D;53743;51.100;5.874;2023-12-22T04:05:39;8.64;90.28
66835;HTU21D;53743;51.100;5.874;2023-12-22T04:06:40;8.72;89.81
66835;HTU21D;53743;51.100;5.874;2023-12-22T04:07:42;8.74;88.97
66835;HTU21D;53743;51.100;5.874;2023-12-22T04:08:43;8.79;88.63
66835;HTU21D;53743;51.100;5.874;2023-12-22T04:09:45;8.80;88.73
66835;HTU21D;53743;51.100;5.874;2023-12-22T04:10:48;8.83;89.18
66835;HTU21D;53743;51.100;5.874;2023-12-22T04:11:50;8.87;88.59
66835;HTU21D;53743;51.100;5.874;2023-12-22T04:12:51;8.89;88.04
66835;HTU21D;53743;51.100;5.874;2023-12-22T04:13:53;8.89;87.96
66835;HTU21D;53743;51.100;5.874;2023-12-22T04:14:54;8.96;86.73
66835;HTU21D;53743;51.100;5.874;2023-12-22T04:15:56;8.92;86.77
66835;HTU21D;53743;51.100;5.874;2023-12-22T04:16:57;8.91;88.32
66835;HTU21D;53743;51.100;5.874;2023-12-22T04:17:59;8.93;86.61
66835;HTU21D;53743;51.100;5.874;2023-12-22T04:19:00;8.94;87.98
66835;HTU21D;53743;51.100;5.874;2023-12-22T04:20:01;8.94;87.12
66835;HTU21D;53743;51.100;5.874;2023-12-22T04:21:04;8.91;88.05
66835;HTU21D;53743;51.100;5.874;2023-12-22T04:22:05;8.96;87.12
66835;HTU21D;53743;51.100;5.874;2023-12-22T04:23:07;8.96;86.84
66835;HTU21D;53743;51.100;5.874;2023-12-22T04:24:08;8.93;87.98
66835;HTU21D;53743;51.100;5.874;2023-12-22T04:25:11;8.95;87.80
66835;HTU21D;53743;51.100;5.874;2023-12-22T04:26:13;8.98;87.32
66835;HTU21D;53743;51.100;5.874;2023-12-22T04:27:15;8.94;87.90
66835;HTU21D;53743;51.100;5.874;2023-12-22T04:28:16;9.01;87.87
66835;HTU21D;53743;51.100;5.874;2023-12-22T04:29:18;9.00;88.09
66835;HTU21D;53743;51.100;5.874;2023-12-22T04:30:19;8.98;87.89
66835;HTU21D;53743;51.100;5.874;2023-12-22T04:31:20;9.03;87.61
66835;HTU21D;53743;51.100;5.874;2023-12-22T04:32:22;9.04;86.86
66835;HTU21D;53743;51.100;5.874;2023-12-22T04:33:23;9.06;86.83
66835;HTU21D;53743;51.100;5.874;2023-12-22T04:34:25;9.11;86.45
66835;HTU21D;53743;51.100;5.874;2023-12-22T04:35:26;9.08;87.09
66835;HTU21D;53743;51.100;5.874;2023-12-22T04:36:28;9.15;86.68
66835;HTU21D;53743;51.100;5.874;2023-12-22T04:37:30;9.10;87.32
66835;HTU21D;53743;51.100;5.874;2023-12-22T04:38:31;9.18;86.61
66835;HTU21D;53743;51.100;5.874;2023-12-22T04:39:33;9.20;86.46
66835;HTU21D;53743;51.100;5.874;2023-12-22T04:40:34;9.18;86.12
66835;HTU21D;53743;51.100;5.874;2023-12-22T04:41:37;9.23;85.72
66835;HTU21D;53743;51.100;5.874;2023-12-22T04:42:39;9.24;85.60
66835;HTU21D;53743;51.100;5.874;2023-12-22T04:43:41;9.25;85.63
66835;HTU21D;53743;51.100;5.874;2023-12-22T04:44:42;9.31;85.91
66835;HTU21D;53743;51.100;5.874;2023-12-22T04:45:44;9.25;85.25
66835;HTU21D;53743;51.100;5.874;2023-12-22T04:46:45;9.29;84.71
66835;HTU21D;53743;51.100;5.874;2023-12-22T04:47:47;9.39;84.26
66835;HTU21D;53743;51.100;5.874;2023-12-22T04:48:48;9.42;83.97
66835;HTU21D;53743;51.100;5.874;2023-12-22T04:49:50;9.46;81.82
66835;HTU21D;53743;51.100;5.874;2023-12-22T04:50:51;9.45;82.94
66835;HTU21D;53743;51.100;5.874;2023-12-22T04:51:53;9.47;83.63
66835;HTU21D;53743;51.100;5.874;2023-12-22T04:52:54;9.46;81.76
66835;HTU21D;53743;51.100;5.874;2023-12-22T04:53:56;9.50;82.95
66835;HTU21D;53743;51.100;5.874;2023-12-22T04:54:57;9.52;82.84
66835;HTU21D;53743;51.100;5.874;2023-12-22T04:55:59;9.51;82.58
66835;HTU21D;53743;51.100;5.874;2023-12-22T04:57:01;9.48;82.46
66835;HTU21D;53743;51.100;5.874;2023-12-22T04:58:03;9.41;82.91
66835;HTU21D;53743;51.100;5.874;2023-12-22T04:59:04;9.44;82.94
66835;HTU21D;53743;51.100;5.874;2023-12-22T05:00:07;9.52;83.55
66835;HTU21D;53743;51.100;5.874;2023-12-22T05:01:09;9.53;81.13
66835;HTU21D;53743;51.100;5.874;2023-12-22T05:02:11;9.49;82.16
66835;HTU21D;53743;51.100;5.874;2023-12-22T05:03:12;9.52;82.48
66835;HTU21D;53743;51.100;5.874;2023-12-22T05:04:14;9.59;81.43
66835;HTU21D;53743;51.100;5.874;2023-12-22T05:05:15;9.62;80.80
66835;HTU21D;53743;51.100;5.874;2023-12-22T05:06:17;9.72;79.40
66835;HTU21D;53743;51.100;5.874;2023-12-22T05:07:18;9.62;79.76
66835;HTU21D;53743;51.100;5.874;2023-12-22T05:08:20;9.63;79.05
66835;HTU21D;53743;51.100;5.874;2023-12-22T05:09:21;9.65;80.55
66835;HTU21D;53743;51.100;5.874;2023-12-22T05:10:25;9.65;80.83
66835;HTU21D;53743;51.100;5.874;2023-12-22T05:11:26;9.57;80.94
66835;HTU21D;53743;51.100;5.874;2023-12-22T05:12:29;9.59;81.60
66835;HTU21D;53743;51.100;5.874;2023-12-22T05:13:31;9.60;82.24
66835;HTU21D;53743;51.100;5.874;2023-12-22T05:14:33;9.67;80.82
66835;HTU21D;53743;51.100;5.874;2023-12-22T05:15:34;9.68;79.76
66835;HTU21D;53743;51.100;5.874;2023-12-22T05:16:36;9.68;81.23
66835;HTU21D;53743;51.100;5.874;2023-12-22T05:17:37;9.66;81.60
66835;HTU21D;53743;51.100;5.874;2023-12-22T05:18:41;9.67;81.28
66835;HTU21D;53743;51.100;5.874;2023-12-22T05:19:42;9.65;81.62
66835;HTU21D;53743;51.100;5.874;2023-12-22T05:20:44;9.64;82.35
66835;HTU21D;53743;51.100;5.874;2023-12-22T05:21:45;9.66;83.05
66835;HTU21D;53743;51.100;5.874;2023-12-22T05:22:47;9.67;82.97
66835;HTU21D;53743;51.100;5.874;2023-12-22T05:23:48;9.67;83.53
66835;HTU21D;53743;51.100;5.874;2023-12-22T05:24:50;9.65;84.01
66835;HTU21D;53743;51.100;5.874;2023-12-22T05:25:51;9.65;84.38
66835;HTU21D;53743;51.100;5.874;2023-12-22T05:26:53;9.70;84.45
66835;HTU21D;53743;51.100;5.874;2023-12-22T05:27:56;9.70;84.16
66835;HTU21D;53743;51.100;5.874;2023-12-22T05:28:58;9.59;85.30
66835;HTU21D;53743;51.100;5.874;2023-12-22T05:29:59;9.60;85.48
66835;HTU21D;53743;51.100;5.874;2023-12-22T05:31:03;9.54;86.34
66835;HTU21D;53743;51.100;5.874;2023-12-22T05:32:05;9.51;86.76
66835;HTU21D;53743;51.100;5.874;2023-12-22T05:33:08;9.59;86.80
66835;HTU21D;53743;51.100;5.874;2023-12-22T05:34:09;9.54;86.96
66835;HTU21D;53743;51.100;5.874;2023-12-22T05:35:11;9.47;87.66
66835;HTU21D;53743;51.100;5.874;2023-12-22T05:36:12;9.48;87.96
66835;HTU21D;53743;51.100;5.874;2023-12-22T05:37:14;9.44;88.27
66835;HTU21D;53743;51.100;5.874;2023-12-22T05:38:16;9.42;88.73
66835;HTU21D;53743;51.100;5.874;2023-12-22T05:39:18;9.42;89.04
66835;HTU21D;53743;51.100;5.874;2023-12-22T05:40:19;9.37;89.71
66835;HTU21D;53743;51.100;5.874;2023-12-22T05:41:20;9.36;90.15
66835;HTU21D;53743;51.100;5.874;2023-12-22T05:42:22;9.34;90.79
66835;HTU21D;53743;51.100;5.874;2023-12-22T05:43:24;9.36;90.44
66835;HTU21D;53743;51.100;5.874;2023-12-22T05:44:26;9.33;91.08
66835;HTU21D;53743;51.100;5.874;2023-12-22T05:45:29;9.30;91.97
66835;HTU21D;53743;51.100;5.874;2023-12-22T05:46:35;9.29;91.93
66835;HTU21D;53743;51.100;5.874;2023-12-22T05:47:37;9.27;92.27
66835;HTU21D;53743;51.100;5.874;2023-12-22T05:48:39;9.29;92.72
66835;HTU21D;53743;51.100;5.874;2023-12-22T05:49:40;9.40;91.65
66835;HTU21D;53743;51.100;5.874;2023-12-22T05:50:42;9.41;91.10
66835;HTU21D;53743;51.100;5.874;2023-12-22T05:51:43;9.37;91.14
66835;HTU21D;53743;51.100;5.874;2023-12-22T05:52:45;9.34;91.09
66835;HTU21D;53743;51.100;5.874;2023-12-22T05:53:46;9.32;90.86
66835;HTU21D;53743;51.100;5.874;2023-12-22T05:54:47;9.34;90.95
66835;HTU21D;53743;51.100;5.874;2023-12-22T05:55:49;9.37;90.56
66835;HTU21D;53743;51.100;5.874;2023-12-22T05:56:51;9.32;90.96
66835;HTU21D;53743;51.100;5.874;2023-12-22T05:57:52;9.26;91.42
66835;HTU21D;53743;51.100;5.874;2023-12-22T05:58:56;9.24;92.22
66835;HTU21D;53743;51.100;5.874;2023-12-22T05:59:57;9.24;92.44
66835;HTU21D;53743;51.100;5.874;2023-12-22T06:00:59;9.23;92.58
66835;HTU21D;53743;51.100;5.874;2023-12-22T06:02:01;9.14;93.66
66835;HTU21D;53743;51.100;5.874;2023-12-22T06:03:04;9.14;93.27
66835;HTU21D;53743;51.100;5.874;2023-12-22T06:04:06;9.08;93.78
66835;HTU21D;53743;51.100;5.874;2023-12-22T06:05:08;9.10;93.66
66835;HTU21D;53743;51.100;5.874;2023-12-22T06:06:09;9.12;93.17
66835;HTU21D;53743;51.100;5.874;2023-12-22T06:07:10;9.11;92.95
66835;HTU21D;53743;51.100;5.874;2023-12-22T06:08:12;9.09;92.98
66835;HTU21D;53743;51.100;5.874;2023-12-22T06:09:13;9.06;93.08
66835;HTU21D;53743;51.100;5.874;2023-12-22T06:10:16;9.11;93.14
66835;HTU21D;53743;51.100;5.874;2023-12-22T06:11:17;9.06;92.98
66835;HTU21D;53743;51.100;5.874;2023-12-22T06:12:19;9.11;93.13
66835;HTU21D;53743;51.100;5.874;2023-12-22T06:13:20;9.08;93.05
66835;HTU21D;53743;51.100;5.874;2023-12-22T06:14:24;9.12;92.82
66835;HTU21D;53743;51.100;5.874;2023-12-22T06:15:25;9.05;93.61
66835;HTU21D;53743;51.100;5.874;2023-12-22T06:16:28;9.04;93.45
66835;HTU21D;53743;51.100;5.874;2023-12-22T06:17:29;9.01;93.93
66835;HTU21D;53743;51.100;5.874;2023-12-22T06:18:31;9.07;93.50
66835;HTU21D;53743;51.100;5.874;2023-12-22T06:19:32;9.04;94.15
66835;HTU21D;53743;51.100;5.874;2023-12-22T06:20:34;9.03;94.33
66835;HTU21D;53743;51.100;5.874;2023-12-22T06:21:37;9.04;94.12
66835;HTU21D;53743;51.100;5.874;2023-12-22T06:22:39;9.06;94.19
66835;HTU21D;53743;51.100;5.874;2023-12-22T06:23:40;9.05;94.19
66835;HTU21D;53743;51.100;5.874;2023-12-22T06:24:42;9.06;94.17
66835;HTU21D;53743;51.100;5.874;2023-12-22T06:25:43;9.07;94.43
66835;HTU21D;53743;51.100;5.874;2023-12-22T06:26:46;9.08;94.35
66835;HTU21D;53743;51.100;5.874;2023-12-22T06:27:47;9.11;94.51
66835;HTU21D;53743;51.100;5.874;2023-12-22T06:28:49;9.12;94.16
66835;HTU21D;53743;51.100;5.874;2023-12-22T06:29:52;9.14;93.95
66835;HTU21D;53743;51.100;5.874;2023-12-22T06:30:56;9.17;93.88
66835;HTU21D;53743;51.100;5.874;2023-12-22T06:31:57;9.18;93.84